createdAt,value
2023-03-26T00:01:59.753Z,5.82
2023-03-26T00:04:28.423Z,6.07
2023-03-26T00:06:56.354Z,6.50
2023-03-26T00:09:24.354Z,5.95
2023-03-26T00:11:52.396Z,6.83
2023-03-26T00:14:20.598Z,5.60
2023-03-26T00:16:49.697Z,6.28
2023-03-26T00:23:50.088Z,5.45
2023-03-26T00:26:19.226Z,5.27
2023-03-26T00:34:10.904Z,5.20
2023-03-26T00:36:39.016Z,5.57
2023-03-26T00:39:06.739Z,5.20
2023-03-26T00:41:43.834Z,5.30
2023-03-26T00:44:11.936Z,5.70
2023-03-26T00:46:40.174Z,5.72
2023-03-26T00:58:11.015Z,5.23
2023-03-26T01:09:43.181Z,2.30
2023-03-26T01:12:17.521Z,2.95
2023-03-26T01:15:39.475Z,3.27
2023-03-26T01:31:58.042Z,2.20
2023-03-26T01:47:48.221Z,2.38
2023-03-26T01:50:16.728Z,2.17
2023-03-26T01:52:44.522Z,2.10
2023-03-26T01:55:14.781Z,2.38
2023-03-26T01:58:33.960Z,2.05
2023-03-26T02:01:28.204Z,2.00
2023-03-26T02:09:01.275Z,2.10
2023-03-26T02:11:35.520Z,2.25
2023-03-26T02:14:53.421Z,2.38
2023-03-26T02:17:44.890Z,2.35
2023-03-26T02:20:14.716Z,2.33
2023-03-26T02:23:09.214Z,2.27
2023-03-26T02:25:45.710Z,2.83
2023-03-26T02:28:13.914Z,2.50
2023-03-26T02:30:43.698Z,2.50
2023-03-26T02:33:15.736Z,2.35
2023-03-26T02:35:46.755Z,2.30
2023-03-26T02:43:06.378Z,2.38
2023-03-26T02:45:36.046Z,2.10
2023-03-26T02:52:30.158Z,2.40
2023-03-26T02:54:59.843Z,2.05
2023-03-26T03:02:24.845Z,2.22
2023-03-26T03:05:02.820Z,2.70
2023-03-26T03:07:59.884Z,2.40
2023-03-26T03:19:34.324Z,2.85
2023-03-26T03:22:02.578Z,2.70
2023-03-26T03:24:34.357Z,2.40
2023-03-26T03:32:51.009Z,2.80
2023-03-26T03:35:23.503Z,2.47
2023-03-26T03:37:57.297Z,5.53
2023-03-26T03:40:51.525Z,7.00
2023-03-26T03:43:19.660Z,2.67
2023-03-26T03:46:25.100Z,3.72
2023-03-26T03:50:00.997Z,3.92
2023-03-26T03:52:29.398Z,2.63
2023-03-26T03:55:06.972Z,2.63
2023-03-26T03:57:49.553Z,2.75
2023-03-26T04:04:40.897Z,1.90
2023-03-26T04:07:13.455Z,2.60
2023-03-26T04:10:27.027Z,2.57
2023-03-26T04:13:04.302Z,2.45
2023-03-26T04:15:50.776Z,2.35
2023-03-26T04:18:20.816Z,2.88
2023-03-26T04:20:49.773Z,2.58
2023-03-26T04:23:26.966Z,2.60
2023-03-26T04:26:25.201Z,1.90
2023-03-26T04:30:32.124Z,2.10
2023-03-26T04:37:58.695Z,2.55
2023-03-26T04:40:35.460Z,2.50
2023-03-26T04:43:51.030Z,2.55
2023-03-26T04:46:44.588Z,2.42
2023-03-26T04:49:33.132Z,2.17
2023-03-26T04:52:01.546Z,2.25
2023-03-26T04:55:24.962Z,2.20
2023-03-26T04:58:06.257Z,2.47
2023-03-26T05:01:18.074Z,3.25
2023-03-26T05:03:47.776Z,3.03
2023-03-26T05:06:18.256Z,2.65
2023-03-26T05:08:47.141Z,2.63
2023-03-26T05:11:30.232Z,4.65
2023-03-26T05:15:19.059Z,3.50
2023-03-26T05:17:55.878Z,4.40
2023-03-26T05:20:31.565Z,3.90
2023-03-26T05:22:59.770Z,8.50
2023-03-26T05:25:35.458Z,7.07
2023-03-26T05:28:56.385Z,3.42
2023-03-26T05:31:31.152Z,3.70
2023-03-26T05:34:03.984Z,2.78
2023-03-26T05:36:32.285Z,2.87
2023-03-26T05:39:14.692Z,2.58
2023-03-26T05:42:16.572Z,2.55
2023-03-26T05:46:01.282Z,2.60
2023-03-26T05:48:33.154Z,3.00
2023-03-26T05:51:30.472Z,3.33
2023-03-26T05:54:13.102Z,3.03
2023-03-26T05:57:29.208Z,2.92
2023-03-26T06:05:01.688Z,2.20
2023-03-26T06:08:12.910Z,1.70
2023-03-26T06:11:14.373Z,1.65
2023-03-26T06:13:43.506Z,1.80
2023-03-26T06:16:26.895Z,2.17
2023-03-26T06:19:07.397Z,2.50
2023-03-26T06:22:18.481Z,2.23
2023-03-26T06:25:15.615Z,2.58
2023-03-26T06:28:27.189Z,1.95
2023-03-26T06:37:24.942Z,1.73
2023-03-26T06:39:58.872Z,1.47
2023-03-26T06:43:09.022Z,1.48
2023-03-26T06:45:41.972Z,1.80
2023-03-26T06:48:41.253Z,1.50
2023-03-26T06:51:29.636Z,1.10
2023-03-26T06:54:13.858Z,1.70
2023-03-26T06:56:51.086Z,1.27
2023-03-26T07:00:53.766Z,1.77
2023-03-26T07:08:16.535Z,1.40
2023-03-26T07:11:54.163Z,1.47
2023-03-26T07:14:42.147Z,1.70
2023-03-26T07:17:28.962Z,1.60
2023-03-26T07:20:41.048Z,1.38
2023-03-26T07:23:38.723Z,1.55
2023-03-26T07:27:02.106Z,1.03
2023-03-26T07:29:45.445Z,1.55
2023-03-26T07:41:54.291Z,1.70
2023-03-26T07:48:30.642Z,1.60
2023-03-26T07:51:12.115Z,1.30
2023-03-26T07:54:25.874Z,1.50
2023-03-26T08:02:42.501Z,1.63
2023-03-26T08:06:42.004Z,1.40
2023-03-26T08:09:39.167Z,1.70
2023-03-26T08:30:45.084Z,1.23
2023-03-26T08:37:21.008Z,1.20
2023-03-26T08:46:02.012Z,0.70
2023-03-26T08:53:26.425Z,1.00
2023-03-26T08:56:19.647Z,1.17
2023-03-26T09:04:35.027Z,0.90
2023-03-26T09:11:44.895Z,1.10
2023-03-26T09:14:30.941Z,0.93
2023-03-26T09:29:44.193Z,1.00
2023-03-26T09:36:38.695Z,0.90
2023-03-26T09:43:35.332Z,1.05
2023-03-26T09:46:18.763Z,1.20
2023-03-26T09:48:59.322Z,1.30
2023-03-26T09:52:30.759Z,1.00
2023-03-26T09:55:01.805Z,1.00
2023-03-26T10:01:47.493Z,0.80
2023-03-26T10:09:19.047Z,1.10
2023-03-26T10:11:53.274Z,1.00
2023-03-26T10:15:10.235Z,1.10
2023-03-26T10:22:20.543Z,1.30
2023-03-26T10:25:16.025Z,1.35
2023-03-26T10:28:35.788Z,1.00
2023-03-26T10:35:40.475Z,1.02
2023-03-26T10:38:31.495Z,1.30
2023-03-26T10:45:13.577Z,1.00
2023-03-26T10:51:42.518Z,0.75
2023-03-26T10:54:41.768Z,0.90
2023-03-26T10:57:26.328Z,0.95
2023-03-26T10:59:58.332Z,0.90
2023-03-26T11:02:35.909Z,0.73
2023-03-26T11:05:23.981Z,0.80
2023-03-26T11:08:04.563Z,1.00
2023-03-26T11:10:54.750Z,0.70
2023-03-26T11:14:08.400Z,0.80
2023-03-26T11:17:08.427Z,1.00
2023-03-26T11:20:37.892Z,1.10
2023-03-26T11:23:34.233Z,0.90
2023-03-26T11:26:16.385Z,0.85
2023-03-26T11:29:32.646Z,1.10
2023-03-26T11:32:14.699Z,0.80
2023-03-26T11:35:39.622Z,0.88
2023-03-26T11:38:33.329Z,0.83
2023-03-26T11:41:05.144Z,0.80
2023-03-26T11:44:08.081Z,0.98
2023-03-26T11:46:46.543Z,1.15
2023-03-26T11:49:19.383Z,0.80
2023-03-26T11:52:16.551Z,1.03
2023-03-26T11:54:51.718Z,0.85
2023-03-26T11:57:28.810Z,0.90
2023-03-26T12:00:17.639Z,1.20
2023-03-26T12:02:47.596Z,0.65
2023-03-26T12:05:20.904Z,0.83
2023-03-26T12:07:58.144Z,1.17
2023-03-26T12:11:04.836Z,1.02
2023-03-26T12:13:44.279Z,0.80
2023-03-26T12:16:19.258Z,1.02
2023-03-26T12:18:59.595Z,0.90
2023-03-26T12:21:28.219Z,1.20
2023-03-26T12:24:05.049Z,0.95
2023-03-26T12:26:40.142Z,2.13
2023-03-26T12:29:35.347Z,0.80
2023-03-26T12:32:08.400Z,0.90
2023-03-26T12:34:39.839Z,0.90
2023-03-26T12:44:49.091Z,1.42
2023-03-26T12:45:31.464Z,4.43
2023-03-26T12:49:14.775Z,1.20
2023-03-26T13:00:50.829Z,2.45
2023-03-26T13:14:25.634Z,1.00
2023-03-26T13:17:06.499Z,2.40
2023-03-26T13:20:19.388Z,1.10
2023-03-26T13:23:13.298Z,1.02
2023-03-26T13:25:43.498Z,3.90
2023-03-26T13:28:20.872Z,5.22
2023-03-26T13:31:32.562Z,2.38
2023-03-26T13:34:20.056Z,10.45
2023-03-26T13:37:06.638Z,13.52
2023-03-26T13:40:09.522Z,3.17
2023-03-26T13:42:51.658Z,14.13
2023-03-26T13:49:14.414Z,1.80
2023-03-26T13:51:50.907Z,1.75
2023-03-26T13:54:35.116Z,1.90
2023-03-26T13:57:12.959Z,1.10
2023-03-26T14:00:07.270Z,1.55
2023-03-26T14:02:45.926Z,7.80
2023-03-26T14:05:57.026Z,9.15
2023-03-26T14:08:28.129Z,2.07
2023-03-26T14:11:02.500Z,1.63
2023-03-26T14:14:04.625Z,2.22
2023-03-26T14:16:42.027Z,1.77
2023-03-26T14:19:51.454Z,3.20
2023-03-26T14:22:53.422Z,2.13
2023-03-26T14:25:46.331Z,1.40
2023-03-26T14:28:43.730Z,1.25
2023-03-26T14:31:24.094Z,2.65
2023-03-26T14:34:13.961Z,1.63
2023-03-26T14:37:00.484Z,4.00
2023-03-26T14:39:34.420Z,2.00
2023-03-26T14:42:19.922Z,1.73
2023-03-26T14:45:10.282Z,3.08
2023-03-26T14:48:08.571Z,2.03
2023-03-26T14:50:47.244Z,4.30
2023-03-26T14:53:35.180Z,4.40
2023-03-26T14:56:53.194Z,2.22
2023-03-26T15:00:12.281Z,4.32
2023-03-26T15:03:17.596Z,3.13
2023-03-26T15:06:21.768Z,5.07
2023-03-26T15:09:11.047Z,1.75
2023-03-26T15:12:12.697Z,1.20
2023-03-26T15:14:43.602Z,0.90
2023-03-26T15:17:29.243Z,1.17
2023-03-26T15:20:43.609Z,1.77
2023-03-26T15:24:21.148Z,0.90
2023-03-26T15:27:10.184Z,2.00
2023-03-26T15:30:25.108Z,0.93
2023-03-26T15:33:45.705Z,1.25
2023-03-26T15:36:32.931Z,1.50
2023-03-26T15:39:24.943Z,1.33
2023-03-26T15:42:08.831Z,1.95
2023-03-26T15:44:57.224Z,2.40
2023-03-26T15:47:50.443Z,1.20
2023-03-26T15:50:54.438Z,1.30
2023-03-26T15:53:51.494Z,1.40
2023-03-26T15:56:40.867Z,1.60
2023-03-26T15:59:20.027Z,1.52
2023-03-26T16:01:50.889Z,1.38
2023-03-26T16:04:52.793Z,1.43
2023-03-26T16:07:47.599Z,1.80
2023-03-26T16:10:28.649Z,1.50
2023-03-26T16:13:19.417Z,1.15
2023-03-26T16:15:57.118Z,1.80
2023-03-26T16:18:34.421Z,1.67
2023-03-26T16:21:35.488Z,1.20
2023-03-26T16:24:03.497Z,0.80
2023-03-26T16:26:53.529Z,1.08
2023-03-26T16:29:25.169Z,1.38
2023-03-26T16:32:22.276Z,1.17
2023-03-26T16:35:21.814Z,3.80
2023-03-26T16:38:17.071Z,3.53
2023-03-26T16:41:19.340Z,2.00
2023-03-26T16:44:01.570Z,4.47
2023-03-26T16:47:06.935Z,1.20
2023-03-26T16:50:19.954Z,1.50
2023-03-26T16:53:41.960Z,2.70
2023-03-26T16:56:17.270Z,20.67
2023-03-26T16:59:07.522Z,5.15
2023-03-26T17:02:11.267Z,4.63
2023-03-26T17:04:42.851Z,5.95
2023-03-26T17:07:17.298Z,6.88
2023-03-26T17:10:04.347Z,8.57
2023-03-26T17:13:28.192Z,11.55
2023-03-26T17:15:58.638Z,10.30
2023-03-26T17:18:50.712Z,9.48
2023-03-26T17:21:24.705Z,9.18
2023-03-26T17:24:04.925Z,8.90
2023-03-26T17:26:49.489Z,10.35
2023-03-26T17:32:15.367Z,11.68
2023-03-26T17:35:02.631Z,8.63
2023-03-26T17:37:46.911Z,10.52
2023-03-26T17:41:01.189Z,13.98
2023-03-26T17:43:58.618Z,9.83
2023-03-26T17:46:50.753Z,9.98
2023-03-26T17:49:32.398Z,10.02
2023-03-26T17:52:16.824Z,4.40
2023-03-26T17:54:48.448Z,2.20
2023-03-26T17:57:32.875Z,5.77
2023-03-26T18:00:07.973Z,3.50
2023-03-26T18:02:53.357Z,3.08
2023-03-26T18:05:45.077Z,3.78
2023-03-26T18:09:10.987Z,2.00
2023-03-26T18:12:34.347Z,1.90
2023-03-26T18:15:44.948Z,4.05
2023-03-26T18:18:47.431Z,10.70
2023-03-26T18:21:40.743Z,7.00
2023-03-26T18:24:29.999Z,13.95
2023-03-26T18:27:20.164Z,2.90
2023-03-26T18:30:01.715Z,1.95
2023-03-26T18:32:34.759Z,1.83
2023-03-26T18:35:44.863Z,1.42
2023-03-26T18:38:35.026Z,1.52
2023-03-26T18:41:38.823Z,1.47
2023-03-26T18:44:13.377Z,1.73
2023-03-26T18:46:47.070Z,1.50
2023-03-26T18:49:22.737Z,1.70
2023-03-26T18:51:57.205Z,1.48
2023-03-26T18:54:32.562Z,1.20
2023-03-26T18:57:15.601Z,1.40
2023-03-26T18:59:46.666Z,1.92
2023-03-26T19:02:16.826Z,1.70
2023-03-26T19:04:47.045Z,2.25
2023-03-26T19:07:48.025Z,2.17
2023-03-26T19:10:24.381Z,4.20
2023-03-26T19:12:57.684Z,5.03
2023-03-26T19:15:35.864Z,6.60
2023-03-26T19:18:27.517Z,7.75
2023-03-26T19:21:01.455Z,5.53
2023-03-26T19:23:51.060Z,5.75
2023-03-26T19:26:19.703Z,5.95
2023-03-26T19:28:53.812Z,4.25
2023-03-26T19:31:51.348Z,3.45
2023-03-26T19:34:54.798Z,3.10
2023-03-26T19:37:30.401Z,3.78
2023-03-26T19:40:34.183Z,6.10
2023-03-26T19:43:04.484Z,3.22
2023-03-26T19:45:35.362Z,2.45
2023-03-26T19:48:15.281Z,2.60
2023-03-26T19:51:06.608Z,2.53
2023-03-26T19:53:37.848Z,2.78
2023-03-26T19:56:13.728Z,2.90
2023-03-26T19:58:43.155Z,2.63
2023-03-26T20:01:24.254Z,2.37
2023-03-26T20:03:58.286Z,3.78
2023-03-26T20:06:53.233Z,2.90
2023-03-26T20:09:22.632Z,3.80
2023-03-26T20:11:52.951Z,4.38
2023-03-26T20:14:26.719Z,3.57
2023-03-26T20:16:54.728Z,3.00
2023-03-26T20:19:24.251Z,2.38
2023-03-26T20:21:53.266Z,3.40
2023-03-26T20:24:27.830Z,6.25
2023-03-26T20:27:00.330Z,6.30
2023-03-26T20:29:29.063Z,4.82
2023-03-26T20:32:01.745Z,4.22
2023-03-26T20:34:30.603Z,2.88
2023-03-26T20:37:01.353Z,3.13
2023-03-26T20:39:32.048Z,2.22
2023-03-26T20:42:01.701Z,2.00
2023-03-26T20:44:31.446Z,2.33
2023-03-26T20:46:59.610Z,2.20
2023-03-26T20:49:33.244Z,1.95
2023-03-26T20:52:14.116Z,1.80
2023-03-26T20:54:42.826Z,1.88
2023-03-26T20:57:13.986Z,2.00
2023-03-26T20:59:42.645Z,2.58
2023-03-26T21:02:11.221Z,2.92
2023-03-26T21:04:39.687Z,2.37
2023-03-26T21:07:17.526Z,2.30
2023-03-26T21:10:13.640Z,2.28
2023-03-26T21:13:13.994Z,3.65
2023-03-26T21:15:42.675Z,2.30
2023-03-26T21:18:11.103Z,1.97
2023-03-26T21:20:39.920Z,2.08
2023-03-26T21:23:20.033Z,3.40
2023-03-26T21:26:12.645Z,3.55
2023-03-26T21:28:50.844Z,2.42
2023-03-26T21:31:24.767Z,2.07
2023-03-26T21:33:55.665Z,2.35
2023-03-26T21:36:24.478Z,2.05
2023-03-26T21:38:55.443Z,2.15
2023-03-26T21:41:36.855Z,3.40
2023-03-26T21:44:05.998Z,4.13
2023-03-26T21:46:35.590Z,3.13
2023-03-26T21:49:04.444Z,2.20
2023-03-26T21:51:34.305Z,2.38
2023-03-26T21:54:02.591Z,2.38
2023-03-26T21:57:03.703Z,2.97
2023-03-26T22:00:42.822Z,2.45
2023-03-26T22:03:49.452Z,2.35
2023-03-26T22:06:43.972Z,2.33
2023-03-26T22:09:15.041Z,3.85
2023-03-26T22:11:45.212Z,3.37
2023-03-26T22:14:13.898Z,3.22
2023-03-26T22:16:42.090Z,3.90
2023-03-26T22:19:11.241Z,4.30
2023-03-26T22:21:39.309Z,5.45
2023-03-26T22:24:07.950Z,4.33
2023-03-26T22:26:37.296Z,4.45
2023-03-26T22:29:05.951Z,4.60
2023-03-26T22:31:35.183Z,4.18
2023-03-26T22:34:03.330Z,4.07
2023-03-26T22:36:34.461Z,4.10
2023-03-26T22:39:02.824Z,4.20
2023-03-26T22:41:30.728Z,3.90
2023-03-26T22:44:09.409Z,4.20
2023-03-26T22:46:51.910Z,4.43
2023-03-26T22:49:20.284Z,5.20
2023-03-26T22:51:50.710Z,5.50
2023-03-26T22:54:19.271Z,4.68
2023-03-26T22:56:47.187Z,5.03
2023-03-26T22:59:15.714Z,4.45
2023-03-26T23:01:44.542Z,5.28
2023-03-26T23:04:13.347Z,4.05
2023-03-26T23:07:01.016Z,3.47
2023-03-26T23:09:30.113Z,4.15
2023-03-26T23:11:58.091Z,4.22
2023-03-26T23:14:26.121Z,4.33
2023-03-26T23:16:53.899Z,4.57
2023-03-26T23:19:22.471Z,4.45
2023-03-26T23:21:50.577Z,3.88
2023-03-26T23:24:18.934Z,3.95
2023-03-26T23:29:22.754Z,3.80
2023-03-26T23:31:53.695Z,3.90
2023-03-26T23:34:22.082Z,4.90
2023-03-26T23:36:50.854Z,4.18
2023-03-26T23:39:19.810Z,4.10
2023-03-26T23:41:47.470Z,4.45
2023-03-26T23:44:17.330Z,4.47
2023-03-26T23:46:45.092Z,4.65
2023-03-26T23:49:13.373Z,4.82
2023-03-26T23:51:41.081Z,4.18
2023-03-26T23:54:11.984Z,4.05
2023-03-26T23:56:39.910Z,4.22
2023-03-26T23:59:08.710Z,4.40
